Time;durP1;ratioP1;P1;durP2;ratioP2;P2;SDS_P1;SDS_P2;PMS_P1;PMS_P2;Temp;Humidity;BMP_temperature;BMP_pressure;BME280_temperature;BME280_humidity;BME280_pressure;Samples;Min_cycle;Max_cycle;Signal;HPM_P1;HPM_P2
2021/12/02 00:01:12;;;;;;;9.90;1.77;;;1.80;96.00;;;;;;6188245;23;20113;-84
2021/12/02 00:03:40;;;;;;;20.33;1.73;;;1.90;95.90;;;;;;6188094;23;20057;-83
2021/12/02 00:06:13;;;;;;;13.02;1.88;;;1.90;96.00;;;;;;6186659;23;20463;-84
2021/12/02 00:08:41;;;;;;;14.20;2.00;;;2.00;96.00;;;;;;6188444;23;20026;-84
2021/12/02 00:11:08;;;;;;;14.48;2.45;;;2.00;96.00;;;;;;6187754;23;20125;-83
2021/12/02 00:21:53;;;;;;;4.82;0.88;;;2.60;96.40;;;;;;6188237;23;20467;-84
2021/12/02 00:24:23;;;;;;;6.97;1.38;;;2.70;96.30;;;;;;6187878;23;20026;-84
2021/12/02 00:26:51;;;;;;;5.15;0.93;;;2.80;96.20;;;;;;6186991;23;20053;-83
2021/12/02 00:29:21;;;;;;;7.03;1.10;;;2.80;95.90;;;;;;6188438;23;20471;-84
2021/12/02 00:31:51;;;;;;;5.43;1.00;;;2.70;95.90;;;;;;6188300;23;20049;-84
2021/12/02 00:34:19;;;;;;;6.18;0.85;;;2.70;95.70;;;;;;6188533;23;20033;-84
2021/12/02 00:36:46;;;;;;;2.13;1.10;;;2.60;95.70;;;;;;6186721;23;20021;-84
2021/12/02 00:39:16;;;;;;;8.38;1.10;;;2.60;95.40;;;;;;6212348;23;20648;-84
2021/12/02 00:41:43;;;;;;;6.13;1.10;;;2.50;95.40;;;;;;6187402;23;20802;-83
2021/12/02 00:44:11;;;;;;;12.07;1.17;;;2.40;95.30;;;;;;6188572;23;20033;-83
2021/12/02 00:46:39;;;;;;;6.88;1.00;;;2.30;95.20;;;;;;6186706;23;20022;-84
2021/12/02 00:49:11;;;;;;;10.63;1.08;;;2.30;95.30;;;;;;6188363;23;20022;-84
2021/12/02 00:51:39;;;;;;;2.63;0.70;;;2.20;95.40;;;;;;6188223;23;20865;-84
2021/12/02 00:54:11;;;;;;;8.65;1.00;;;2.10;95.20;;;;;;6187912;23;20073;-84
2021/12/02 00:56:39;;;;;;;8.30;0.80;;;2.00;95.30;;;;;;6186275;23;20021;-83
2021/12/02 00:59:09;;;;;;;3.72;0.82;;;2.00;95.40;;;;;;6187959;23;20024;-84
2021/12/02 01:01:38;;;;;;;12.07;1.27;;;1.90;95.40;;;;;;6185933;23;20076;-84
2021/12/02 01:04:09;;;;;;;7.38;1.10;;;1.80;95.40;;;;;;6188300;23;20026;-83
2021/12/02 01:06:37;;;;;;;6.47;0.95;;;1.80;95.50;;;;;;6185368;23;20121;-84
2021/12/02 01:09:09;;;;;;;5.25;1.02;;;1.80;95.60;;;;;;6188060;23;20018;-84
2021/12/02 01:11:39;;;;;;;7.40;1.00;;;1.80;95.70;;;;;;6188227;23;20026;-84
2021/12/02 01:14:07;;;;;;;9.25;1.50;;;1.80;95.70;;;;;;6186442;23;20029;-84
2021/12/02 01:16:35;;;;;;;5.35;0.80;;;1.80;95.90;;;;;;6185883;23;20021;-84
2021/12/02 01:19:05;;;;;;;7.10;0.80;;;1.90;96.00;;;;;;6186933;23;20348;-84
2021/12/02 01:21:35;;;;;;;8.20;1.30;;;1.90;96.20;;;;;;6186901;23;20109;-84
2021/12/02 01:24:06;;;;;;;10.80;1.40;;;2.00;96.40;;;;;;6210923;23;20036;-84
2021/12/02 01:26:34;;;;;;;5.68;0.90;;;2.00;96.40;;;;;;6187757;23;20065;-84
2021/12/02 01:29:02;;;;;;;11.88;1.27;;;2.00;96.40;;;;;;6187769;23;20093;-84
2021/12/02 01:31:35;;;;;;;4.80;0.77;;;2.00;96.40;;;;;;6210295;23;20021;-84
2021/12/02 01:34:07;;;;;;;11.43;1.00;;;2.00;96.40;;;;;;6187810;23;20104;-84
2021/12/02 01:36:39;;;;;;;11.23;1.10;;;1.90;96.40;;;;;;6186319;23;20045;-84
2021/12/02 01:39:08;;;;;;;8.63;1.20;;;1.90;96.30;;;;;;6187523;23;20032;-84
2021/12/02 01:41:55;;;;;;;7.00;1.05;;;1.90;96.30;;;;;;6187470;23;20072;-84
2021/12/02 01:44:26;;;;;;;7.78;1.10;;;1.90;96.20;;;;;;6187811;23;20053;-84
2021/12/02 01:46:56;;;;;;;5.50;1.10;;;1.90;96.20;;;;;;6187767;23;20686;-83
2021/12/02 01:49:27;;;;;;;5.65;0.90;;;1.80;96.10;;;;;;6187537;23;20025;-83
2021/12/02 01:51:55;;;;;;;8.93;1.10;;;1.80;96.20;;;;;;6185919;23;20026;-84
2021/12/02 01:54:25;;;;;;;11.35;1.15;;;1.90;96.20;;;;;;6187461;23;20033;-83
2021/12/02 01:57:07;;;;;;;11.77;1.13;;;1.90;96.30;;;;;;6186971;23;20059;-84
2021/12/02 01:59:38;;;;;;;6.97;1.23;;;1.90;96.30;;;;;;6188136;23;20025;-84
2021/12/02 02:02:10;;;;;;;8.65;1.08;;;1.90;96.40;;;;;;6186964;23;20837;-84
2021/12/02 02:04:38;;;;;;;8.98;1.17;;;2.00;96.40;;;;;;6187746;23;20498;-84
2021/12/02 02:07:14;;;;;;;11.60;1.02;;;2.00;96.50;;;;;;6217054;23;20025;-83
2021/12/02 02:09:41;;;;;;;6.93;0.88;;;2.00;96.60;;;;;;6195045;23;20100;-84
2021/12/02 02:12:11;;;;;;;10.52;1.42;;;2.10;96.50;;;;;;6192661;23;20797;-84
2021/12/02 02:14:39;;;;;;;6.85;1.17;;;2.10;96.60;;;;;;6189538;23;20843;-84
2021/12/02 02:19:53;;;;;;;7.20;0.88;;;2.30;96.60;;;;;;6191748;23;20070;-84
2021/12/02 02:22:22;;;;;;;5.65;1.40;;;2.30;96.60;;;;;;6189047;23;20018;-84
2021/12/02 02:24:50;;;;;;;12.07;1.15;;;2.40;96.60;;;;;;6213080;23;20123;-84
2021/12/02 02:27:17;;;;;;;4.70;1.02;;;2.40;96.60;;;;;;6189280;23;20100;-84
2021/12/02 02:29:44;;;;;;;7.43;1.30;;;2.40;96.60;;;;;;6212968;23;20021;-84
2021/12/02 02:32:11;;;;;;;10.10;1.00;;;2.40;96.60;;;;;;6212620;23;20026;-84
2021/12/02 02:34:38;;;;;;;10.95;1.00;;;2.40;96.60;;;;;;6189032;23;20060;-84
2021/12/02 02:37:07;;;;;;;7.30;0.93;;;2.40;96.50;;;;;;6191898;23;20022;-84
2021/12/02 02:39:36;;;;;;;3.60;0.90;;;2.40;96.60;;;;;;6195963;23;20025;-84
2021/12/02 02:42:05;;;;;;;11.43;1.17;;;2.40;96.40;;;;;;6192255;23;20017;-84
2021/12/02 02:44:36;;;;;;;11.10;1.83;;;2.30;96.50;;;;;;6192121;23;20025;-83
2021/12/02 02:47:03;;;;;;;7.35;1.08;;;2.30;96.40;;;;;;6191978;23;20021;-84
2021/12/02 02:49:29;;;;;;;8.68;0.82;;;2.30;96.50;;;;;;6194313;23;20021;-84
2021/12/02 02:51:56;;;;;;;6.38;1.00;;;2.30;96.50;;;;;;6194441;23;20033;-84
2021/12/02 02:54:27;;;;;;;7.88;1.15;;;2.40;96.50;;;;;;6194300;23;20010;-84
2021/12/02 02:57:03;;;;;;;9.57;1.05;;;2.30;96.50;;;;;;6196274;23;20777;-84
2021/12/02 02:59:40;;;;;;;10.35;1.23;;;2.30;96.40;;;;;;6219460;23;20024;-84
2021/12/02 03:07:13;;;;;;;4.90;1.05;;;2.20;96.30;;;;;;6189875;23;20022;-84
2021/12/02 03:09:57;;;;;;;7.40;0.90;;;2.10;96.20;;;;;;6212447;23;20128;-84
2021/12/02 03:12:31;;;;;;;9.32;0.95;;;2.00;96.20;;;;;;6188695;23;20093;-84
2021/12/02 03:17:32;;;;;;;8.20;1.15;;;2.00;96.30;;;;;;6188187;23;20606;-84
2021/12/02 03:20:03;;;;;;;7.60;1.10;;;2.00;96.30;;;;;;6189169;23;20463;-84
2021/12/02 03:22:31;;;;;;;11.02;1.20;;;2.10;96.40;;;;;;6188934;23;20017;-84
2021/12/02 03:24:58;;;;;;;9.98;1.30;;;2.10;96.50;;;;;;6188972;23;20815;-84
2021/12/02 03:27:26;;;;;;;7.28;0.85;;;2.10;96.40;;;;;;6188784;23;20025;-84
2021/12/02 03:29:53;;;;;;;3.75;0.77;;;2.10;96.50;;;;;;6187121;23;20049;-84
2021/12/02 03:32:20;;;;;;;13.25;1.20;;;2.10;96.50;;;;;;6188805;23;20025;-84
2021/12/02 03:34:46;;;;;;;9.00;0.80;;;2.10;96.50;;;;;;6188817;23;20029;-84
2021/12/02 03:37:13;;;;;;;7.22;1.00;;;2.20;96.50;;;;;;6188207;23;20029;-84
2021/12/02 03:39:40;;;;;;;7.47;0.95;;;2.20;96.50;;;;;;6212351;23;20778;-84
2021/12/02 03:42:10;;;;;;;7.30;1.23;;;2.20;96.50;;;;;;6188749;23;20049;-84
2021/12/02 03:44:36;;;;;;;9.25;1.20;;;2.30;96.60;;;;;;6188595;23;20064;-84
2021/12/02 03:47:03;;;;;;;13.10;1.20;;;2.30;96.60;;;;;;6188888;23;20025;-85
2021/12/02 03:49:30;;;;;;;11.93;1.15;;;2.30;96.50;;;;;;6188885;23;20056;-84
2021/12/02 03:51:57;;;;;;;13.43;1.50;;;2.30;96.50;;;;;;6212544;23;20025;-84
2021/12/02 03:54:24;;;;;;;13.55;1.48;;;2.30;96.60;;;;;;6188353;23;20092;-84
2021/12/02 03:56:50;;;;;;;8.98;1.35;;;2.40;96.60;;;;;;6188390;23;20852;-84
2021/12/02 03:59:17;;;;;;;9.13;1.33;;;2.30;96.60;;;;;;6188580;23;20098;-84
2021/12/02 04:01:44;;;;;;;6.85;1.20;;;2.30;96.60;;;;;;6187625;23;20546;-84
2021/12/02 04:04:11;;;;;;;12.20;1.40;;;2.30;96.50;;;;;;6187963;23;20041;-84
2021/12/02 04:06:38;;;;;;;12.80;1.30;;;2.30;96.60;;;;;;6188813;23;20026;-84
2021/12/02 04:09:17;;;;;;;17.95;1.30;;;2.30;96.50;;;;;;6211496;23;20048;-84
2021/12/02 04:11:52;;;;;;;14.23;1.33;;;2.30;96.60;;;;;;6188729;23;20109;-84
2021/12/02 04:14:34;;;;;;;11.27;1.10;;;2.30;96.50;;;;;;6188272;23;20025;-84
2021/12/02 04:17:03;;;;;;;10.43;1.00;;;2.20;96.50;;;;;;6186585;23;20492;-84
2021/12/02 04:19:34;;;;;;;17.73;1.50;;;2.20;96.60;;;;;;6186823;23;20032;-84
2021/12/02 04:22:00;;;;;;;7.78;1.10;;;2.30;96.70;;;;;;6188648;23;20030;-85
2021/12/02 04:24:27;;;;;;;5.53;0.98;;;2.30;96.70;;;;;;6212236;23;20026;-85
2021/12/02 04:26:54;;;;;;;8.90;1.35;;;2.20;96.70;;;;;;6187152;23;20037;-84
2021/12/02 04:29:24;;;;;;;3.80;0.68;;;2.20;96.50;;;;;;6187223;23;20021;-84
2021/12/02 04:31:51;;;;;;;3.20;0.60;;;2.10;96.40;;;;;;6211504;23;20096;-84
2021/12/02 04:34:18;;;;;;;11.93;1.60;;;2.00;96.40;;;;;;6211958;23;20750;-85
2021/12/02 04:36:45;;;;;;;6.28;0.90;;;2.00;96.30;;;;;;6212074;23;20094;-84
2021/12/02 04:39:12;;;;;;;5.30;1.02;;;1.90;96.30;;;;;;6186937;23;20025;-84
2021/12/02 04:41:39;;;;;;;9.80;1.67;;;1.80;96.30;;;;;;6188494;23;20021;-84
2021/12/02 04:44:06;;;;;;;9.20;0.82;;;1.80;96.30;;;;;;6188312;23;20718;-84
2021/12/02 04:46:33;;;;;;;12.50;1.13;;;1.80;96.30;;;;;;6188126;23;20045;-84
2021/12/02 04:49:02;;;;;;;4.95;0.75;;;1.70;96.40;;;;;;6188063;23;20046;-84
2021/12/02 04:51:28;;;;;;;9.38;1.10;;;1.70;96.40;;;;;;6187516;23;20104;-84
2021/12/02 04:53:55;;;;;;;13.13;1.13;;;1.70;96.50;;;;;;6188480;23;20100;-84
2021/12/02 04:56:23;;;;;;;7.13;0.88;;;1.70;96.50;;;;;;6188152;23;20021;-84
2021/12/02 04:58:50;;;;;;;6.93;0.80;;;1.70;96.40;;;;;;6188166;23;20530;-84
2021/12/02 05:01:17;;;;;;;5.15;0.70;;;1.60;96.30;;;;;;6187818;23;20021;-84
2021/12/02 05:03:45;;;;;;;7.00;0.88;;;1.70;96.40;;;;;;6187777;23;20537;-84
2021/12/02 05:06:14;;;;;;;12.68;1.40;;;1.70;96.40;;;;;;6186564;23;20602;-84
2021/12/02 05:08:40;;;;;;;11.70;1.00;;;1.60;96.40;;;;;;6188268;23;20072;-83
2021/12/02 05:11:07;;;;;;;4.57;0.50;;;1.60;96.50;;;;;;6211275;23;20022;-84
2021/12/02 05:13:34;;;;;;;2.70;0.63;;;1.60;96.50;;;;;;6211684;23;20032;-83
2021/12/02 05:16:01;;;;;;;4.85;0.65;;;1.50;96.50;;;;;;6187527;23;20029;-84
2021/12/02 05:18:28;;;;;;;9.43;0.90;;;1.50;96.50;;;;;;6186234;23;20022;-84
2021/12/02 05:21:00;;;;;;;16.48;1.17;;;1.40;96.50;;;;;;6187684;23;20112;-84
2021/12/02 05:23:27;;;;;;;9.82;0.80;;;1.40;96.50;;;;;;6187595;23;20034;-84
2021/12/02 05:25:54;;;;;;;9.50;0.88;;;1.30;96.50;;;;;;6186154;23;20021;-84
2021/12/02 05:28:21;;;;;;;7.15;0.68;;;1.20;96.50;;;;;;6186715;23;20022;-84
2021/12/02 05:30:47;;;;;;;4.55;0.50;;;1.20;96.40;;;;;;6188194;23;20021;-84
2021/12/02 05:33:15;;;;;;;6.38;0.70;;;1.20;96.50;;;;;;6211061;23;20030;-84
2021/12/02 05:35:44;;;;;;;7.88;0.90;;;1.10;96.40;;;;;;6187779;23;20104;-84
2021/12/02 05:38:11;;;;;;;13.40;0.90;;;1.00;96.40;;;;;;6188413;23;20029;-84
2021/12/02 05:40:38;;;;;;;8.55;1.00;;;1.10;96.40;;;;;;6185741;23;20089;-84
2021/12/02 05:43:05;;;;;;;7.78;0.90;;;1.10;96.50;;;;;;6212441;23;20033;-84
2021/12/02 05:45:32;;;;;;;7.65;1.05;;;1.10;96.50;;;;;;6187832;23;20022;-84
2021/12/02 05:47:58;;;;;;;4.57;0.80;;;1.10;96.60;;;;;;6187626;23;20113;-84
2021/12/02 05:50:25;;;;;;;6.40;0.90;;;1.20;96.60;;;;;;6187596;23;20054;-84
2021/12/02 05:52:53;;;;;;;7.93;0.88;;;1.20;96.60;;;;;;6188953;23;20032;-84
2021/12/02 05:55:20;;;;;;;7.80;1.10;;;1.10;96.70;;;;;;6189220;23;20028;-84
2021/12/02 05:57:47;;;;;;;6.95;0.95;;;1.20;96.70;;;;;;6190803;23;20144;-84
2021/12/02 06:00:15;;;;;;;7.18;0.80;;;1.10;96.70;;;;;;6189715;23;20014;-84
2021/12/02 06:02:42;;;;;;;8.68;1.00;;;1.10;96.70;;;;;;6188979;23;20668;-84
2021/12/02 06:05:09;;;;;;;9.70;1.30;;;1.10;96.80;;;;;;6188066;23;20029;-84
2021/12/02 06:07:37;;;;;;;3.45;0.88;;;1.10;96.70;;;;;;6189066;23;20026;-84
2021/12/02 06:10:07;;;;;;;3.00;1.00;;;1.10;96.80;;;;;;6188076;23;20144;-84
2021/12/02 06:12:34;;;;;;;9.80;0.98;;;1.10;96.80;;;;;;6188825;23;20036;-84
2021/12/02 06:15:04;;;;;;;7.72;1.27;;;1.20;96.80;;;;;;6189166;23;20096;-83
2021/12/02 06:17:32;;;;;;;5.18;0.95;;;1.10;96.90;;;;;;6186976;23;20037;-84
2021/12/02 06:20:05;;;;;;;7.15;1.40;;;1.10;96.80;;;;;;6187104;23;20022;-84
2021/12/02 06:22:33;;;;;;;9.88;1.10;;;1.10;96.80;;;;;;6189400;23;20183;-84
2021/12/02 06:27:47;;;;;;;9.77;1.45;;;1.00;96.80;;;;;;6188704;23;20025;-84
2021/12/02 06:30:17;;;;;;;7.72;1.10;;;0.90;96.80;;;;;;6188317;23;20022;-83
2021/12/02 06:32:44;;;;;;;12.30;1.08;;;0.80;96.70;;;;;;6186781;23;20471;-84
2021/12/02 06:35:13;;;;;;;6.38;1.20;;;0.70;96.70;;;;;;6188588;23;20017;-84
2021/12/02 06:37:41;;;;;;;6.50;1.40;;;0.70;96.60;;;;;;6189122;23;20835;-84
2021/12/02 06:40:08;;;;;;;11.73;1.35;;;0.60;96.60;;;;;;6187703;23;20038;-84
2021/12/02 06:42:37;;;;;;;6.97;1.23;;;0.60;96.50;;;;;;6211566;23;20030;-84
2021/12/02 06:45:05;;;;;;;12.05;1.30;;;0.50;96.50;;;;;;6188846;23;20026;-84
2021/12/02 06:47:35;;;;;;;9.25;1.30;;;0.50;96.50;;;;;;6188605;23;20487;-84
2021/12/02 06:50:04;;;;;;;12.63;1.70;;;0.40;96.50;;;;;;6188630;23;20028;-84
2021/12/02 06:52:32;;;;;;;8.30;1.38;;;0.40;96.50;;;;;;6188690;23;20616;-84
2021/12/02 06:54:59;;;;;;;11.70;1.40;;;0.30;96.50;;;;;;6188321;23;20021;-84
2021/12/02 06:57:32;;;;;;;10.35;1.20;;;0.30;96.60;;;;;;6188725;23;20770;-84
2021/12/02 07:00:04;;;;;;;13.75;1.52;;;0.30;96.60;;;;;;6212311;23;20025;-83
2021/12/02 07:02:33;;;;;;;11.38;1.30;;;0.30;96.60;;;;;;6189018;23;20380;-83
2021/12/02 07:05:08;;;;;;;3.33;1.15;;;0.30;96.70;;;;;;6187416;23;20104;-84
2021/12/02 07:07:36;;;;;;;12.20;1.50;;;0.40;96.70;;;;;;6188753;23;20093;-84
2021/12/02 07:10:23;;;;;;;11.30;1.58;;;0.40;96.70;;;;;;6186882;23;20365;-84
2021/12/02 07:13:59;;;;;;;;;;;;;;;;;;;;;
2021/12/02 07:16:43;;;;;;;10.23;2.08;;;0.40;96.70;;;;;;6186400;23;20028;-84
2021/12/02 07:19:13;;;;;;;15.27;2.47;;;0.40;96.80;;;;;;6211551;23;20174;-84
2021/12/02 07:21:40;;;;;;;12.05;1.80;;;0.50;96.90;;;;;;6187813;23;20458;-83
2021/12/02 07:24:10;;;;;;;9.52;1.58;;;0.50;96.90;;;;;;6186683;23;20034;-84
2021/12/02 07:26:41;;;;;;;13.60;1.70;;;0.60;97.00;;;;;;6188722;23;20117;-83
2021/12/02 07:29:09;;;;;;;8.73;1.92;;;0.60;97.00;;;;;;6188319;23;20408;-84
2021/12/02 07:31:38;;;;;;;13.77;1.77;;;0.70;97.10;;;;;;6188233;23;20101;-84
2021/12/02 07:34:05;;;;;;;18.73;2.05;;;0.80;97.10;;;;;;6188130;23;20487;-83
2021/12/02 07:36:33;;;;;;;14.90;1.60;;;0.80;97.20;;;;;;6188215;23;20813;-83
2021/12/02 07:39:02;;;;;;;11.00;1.52;;;0.90;97.20;;;;;;6188471;23;20443;-84
2021/12/02 07:41:29;;;;;;;9.65;1.65;;;1.00;97.30;;;;;;6186663;23;20100;-84
2021/12/02 07:43:56;;;;;;;14.13;1.63;;;1.00;97.20;;;;;;6172614;23;20096;-84
2021/12/02 07:46:23;;;;;;;6.47;1.05;;;0.90;97.20;;;;;;6187261;23;20053;-83
2021/12/02 07:48:50;;;;;;;8.65;1.08;;;0.90;97.10;;;;;;6187486;23;20026;-83
2021/12/02 07:51:17;;;;;;;5.32;0.77;;;0.90;97.00;;;;;;6188106;23;20092;-84
2021/12/02 07:53:53;;;;;;;9.77;1.25;;;0.90;97.10;;;;;;6187649;23;20970;-84
2021/12/02 07:56:25;;;;;;;11.55;1.20;;;0.80;97.00;;;;;;6187876;23;20036;-83
2021/12/02 07:58:52;;;;;;;8.15;0.90;;;0.80;97.00;;;;;;6187604;23;20022;-84
2021/12/02 08:01:19;;;;;;;4.25;1.08;;;0.80;97.00;;;;;;6211442;23;20022;-84
2021/12/02 08:03:52;;;;;;;5.47;1.10;;;0.80;97.00;;;;;;6187546;23;20060;-83
2021/12/02 08:06:18;;;;;;;6.82;1.33;;;0.80;97.00;;;;;;6188116;23;20026;-84
2021/12/02 08:08:46;;;;;;;7.38;1.30;;;0.80;97.00;;;;;;6188066;23;20026;-84
2021/12/02 08:11:13;;;;;;;7.22;1.02;;;0.80;97.00;;;;;;6185379;23;20084;-84
2021/12/02 08:13:42;;;;;;;4.80;1.00;;;0.80;97.00;;;;;;6211185;23;20041;-83
2021/12/02 08:16:09;;;;;;;8.00;1.20;;;0.80;96.90;;;;;;6187719;23;20110;-84
2021/12/02 08:18:38;;;;;;;3.60;0.93;;;0.80;96.90;;;;;;6188123;23;20025;-83
2021/12/02 08:21:05;;;;;;;9.23;0.90;;;0.70;96.90;;;;;;6188423;23;20371;-83
2021/12/02 08:23:32;;;;;;;6.70;0.90;;;0.70;96.90;;;;;;6211357;23;20105;-83
2021/12/02 08:26:02;;;;;;;5.78;1.40;;;0.70;96.90;;;;;;6188290;23;20022;-83
2021/12/02 08:28:33;;;;;;;2.78;1.27;;;0.70;97.00;;;;;;6187123;23;20072;-83
2021/12/02 08:31:00;;;;;;;8.55;2.35;;;0.80;97.00;;;;;;6211340;23;20706;-84
2021/12/02 08:33:31;;;;;;;9.48;1.70;;;0.80;96.90;;;;;;6188116;23;20083;-83
2021/12/02 08:36:03;;;;;;;4.78;1.10;;;0.80;97.00;;;;;;6185146;23;20031;-83
2021/12/02 08:38:32;;;;;;;6.38;1.30;;;0.80;97.10;;;;;;6187464;23;20032;-84
2021/12/02 08:41:01;;;;;;;5.57;1.20;;;0.80;97.00;;;;;;6188299;23;20029;-83
2021/12/02 08:43:30;;;;;;;8.95;1.30;;;0.90;97.10;;;;;;6186515;23;20026;-83
2021/12/02 08:45:57;;;;;;;6.93;1.52;;;0.90;97.10;;;;;;6187918;23;20021;-83
2021/12/02 08:48:24;;;;;;;5.05;1.10;;;0.90;97.10;;;;;;6188267;23;20096;-84
2021/12/02 08:50:50;;;;;;;9.82;1.42;;;0.90;97.10;;;;;;6188552;23;20073;-83
2021/12/02 08:53:22;;;;;;;3.67;1.00;;;1.00;97.00;;;;;;6188081;23;20104;-83
2021/12/02 08:55:52;;;;;;;2.78;1.02;;;1.00;97.10;;;;;;6185951;23;20028;-83
2021/12/02 08:58:19;;;;;;;7.10;1.20;;;1.10;97.10;;;;;;6188022;23;20033;-83
2021/12/02 09:00:46;;;;;;;10.25;1.48;;;1.10;97.10;;;;;;6210136;23;20529;-83
2021/12/02 09:03:15;;;;;;;7.95;1.25;;;1.20;97.10;;;;;;6185847;23;20026;-83
2021/12/02 09:05:43;;;;;;;24.52;1.80;;;1.30;97.10;;;;;;6185130;23;20025;-83
2021/12/02 09:08:10;;;;;;;5.20;1.10;;;1.30;97.20;;;;;;6185458;23;20036;-83
2021/12/02 09:10:42;;;;;;;5.07;1.20;;;1.30;97.10;;;;;;6184210;23;20021;-83
2021/12/02 09:13:10;;;;;;;10.32;1.27;;;1.30;97.10;;;;;;6209102;23;20112;-83
2021/12/02 09:15:38;;;;;;;8.77;1.00;;;1.30;97.00;;;;;;6183157;23;20076;-83
2021/12/02 09:18:05;;;;;;;3.78;1.00;;;1.40;97.10;;;;;;6186300;23;20045;-83
2021/12/02 09:20:34;;;;;;;13.05;1.27;;;1.50;97.10;;;;;;6187218;23;20761;-83
2021/12/02 09:23:01;;;;;;;11.38;1.10;;;1.60;97.10;;;;;;6187268;23;20029;-83
2021/12/02 09:25:28;;;;;;;10.90;1.20;;;1.90;97.00;;;;;;6186309;23;20026;-83
2021/12/02 09:27:58;;;;;;;9.38;1.20;;;2.10;97.10;;;;;;6209845;23;20010;-83
2021/12/02 09:30:25;;;;;;;22.02;2.13;;;2.30;97.00;;;;;;6186318;23;20050;-83
2021/12/02 09:32:58;;;;;;;12.00;1.30;;;2.60;97.10;;;;;;6184791;23;20034;-83
2021/12/02 09:35:25;;;;;;;10.82;1.90;;;2.80;96.90;;;;;;6185984;23;20025;-83
2021/12/02 09:37:55;;;;;;;6.40;1.10;;;2.80;96.80;;;;;;6186219;23;20028;-83
2021/12/02 09:40:31;;;;;;;8.88;1.00;;;2.90;96.50;;;;;;6185778;23;20037;-84
2021/12/02 09:43:05;;;;;;;9.95;1.27;;;3.10;96.30;;;;;;6186770;23;20022;-83
2021/12/02 09:45:34;;;;;;;6.55;1.85;;;3.30;96.20;;;;;;6187368;23;20705;-83
2021/12/02 09:48:14;;;;;;;16.23;1.45;;;3.60;95.90;;;;;;6207417;23;20105;-83
2021/12/02 09:51:00;;;;;;;5.63;1.10;;;3.70;95.50;;;;;;6208839;23;20830;-83
2021/12/02 09:53:53;;;;;;;5.38;1.20;;;3.70;94.90;;;;;;6186326;23;20403;-83
2021/12/02 09:56:30;;;;;;;5.65;1.05;;;3.90;94.60;;;;;;6186984;23;20077;-84
2021/12/02 09:59:09;;;;;;;7.85;1.73;;;3.90;93.50;;;;;;6187074;23;20105;-83
2021/12/02 10:01:43;;;;;;;14.20;1.65;;;4.00;93.50;;;;;;6184953;23;20017;-84
2021/12/02 10:04:13;;;;;;;3.65;0.90;;;4.00;93.40;;;;;;6185341;23;20581;-83
2021/12/02 10:07:38;;;;;;;6.25;1.15;;;4.00;92.80;;;;;;6185380;23;20109;-83
2021/12/02 10:16:53;;;;;;;11.90;1.67;;;4.40;93.60;;;;;;6184835;23;20113;-83
2021/12/02 10:19:27;;;;;;;7.60;1.60;;;4.40;93.40;;;;;;6159572;23;20032;-83
2021/12/02 10:22:10;;;;;;;6.20;1.88;;;4.40;92.90;;;;;;6159085;23;20117;-83
2021/12/02 10:24:43;;;;;;;4.93;1.30;;;4.50;92.90;;;;;;6183556;23;20977;-83
2021/12/02 10:27:15;;;;;;;7.25;1.10;;;4.40;91.70;;;;;;6183253;23;20033;-83
2021/12/02 10:29:48;;;;;;;6.40;1.35;;;4.60;93.10;;;;;;6183550;23;20081;-84
2021/12/02 10:32:25;;;;;;;1.98;0.68;;;4.90;92.70;;;;;;6183140;23;20057;-84
2021/12/02 10:35:07;;;;;;;2.05;0.80;;;5.00;92.10;;;;;;6158692;23;20077;-83
2021/12/02 10:37:36;;;;;;;5.28;1.00;;;5.10;91.90;;;;;;6158137;23;20026;-83
2021/12/02 10:40:15;;;;;;;2.38;1.00;;;5.10;91.20;;;;;;6183173;23;20025;-84
2021/12/02 10:42:47;;;;;;;2.92;1.10;;;4.90;90.00;;;;;;6183672;23;20486;-83
2021/12/02 10:45:31;;;;;;;4.70;1.10;;;4.60;90.70;;;;;;6182461;23;20037;-83
2021/12/02 10:48:02;;;;;;;1.40;0.85;;;4.20;90.90;;;;;;6183697;23;20034;-83
2021/12/02 10:50:37;;;;;;;2.60;1.00;;;4.00;91.50;;;;;;6183847;23;20466;-83
2021/12/02 10:53:09;;;;;;;1.60;0.68;;;3.90;92.20;;;;;;6186857;23;20025;-83
2021/12/02 10:55:42;;;;;;;3.42;0.80;;;3.70;92.80;;;;;;6186409;23;20526;-83
2021/12/02 10:58:14;;;;;;;1.52;0.52;;;3.60;92.80;;;;;;6209444;23;20080;-84
2021/12/02 11:00:59;;;;;;;2.08;0.70;;;3.40;92.90;;;;;;6185970;23;20017;-84
2021/12/02 11:04:15;;;;;;;3.15;0.70;;;3.30;93.10;;;;;;6185945;23;20793;-83
2021/12/02 11:06:55;;;;;;;2.17;0.70;;;3.20;93.20;;;;;;6182304;23;20029;-83
2021/12/02 11:09:43;;;;;;;2.50;0.80;;;3.10;93.40;;;;;;6186550;23;20597;-84
2021/12/02 11:12:12;;;;;;;;;;;3.10;93.90;;;;;;6185379;23;20029;-83
2021/12/02 11:15:19;;;;;;;2.22;0.73;;;3.00;94.20;;;;;;6185358;23;19920;-83
2021/12/02 11:18:05;;;;;;;3.15;0.80;;;2.90;94.10;;;;;;6210093;23;20021;-83
2021/12/02 11:20:41;;;;;;;1.58;0.60;;;2.90;94.20;;;;;;6184857;23;20025;-83
2021/12/02 11:23:28;;;;;;;3.03;0.90;;;2.90;94.50;;;;;;6185274;23;20025;-84
2021/12/02 11:25:59;;;;;;;3.83;1.40;;;2.90;94.50;;;;;;6185305;23;20029;-84
2021/12/02 11:28:34;;;;;;;3.22;0.90;;;2.80;94.60;;;;;;6185488;23;20074;-84
2021/12/02 11:31:12;;;;;;;1.63;1.27;;;2.80;94.10;;;;;;6185086;23;20781;-84
2021/12/02 11:33:46;;;;;;;2.95;1.17;;;2.70;94.20;;;;;;6209586;23;20100;-84
2021/12/02 11:36:26;;;;;;;2.05;1.20;;;2.70;94.50;;;;;;6185056;23;20092;-84
2021/12/02 11:38:59;;;;;;;3.72;1.60;;;2.80;94.80;;;;;;6185507;23;20455;-84
2021/12/02 11:44:37;;;;;;;3.45;1.50;;;2.70;94.40;;;;;;6187370;23;20048;-84
2021/12/02 11:47:05;;;;;;;1.25;0.90;;;2.60;94.30;;;;;;6188579;23;20045;-84
2021/12/02 11:49:32;;;;;;;2.85;1.15;;;2.60;94.40;;;;;;6188131;23;20025;-84
2021/12/02 11:52:10;;;;;;;3.38;0.90;;;2.60;94.20;;;;;;6188470;23;20467;-84
2021/12/02 11:54:40;;;;;;;3.03;1.00;;;2.50;94.40;;;;;;6186533;23;20467;-84
2021/12/02 11:57:17;;;;;;;2.15;1.10;;;2.50;94.60;;;;;;6188252;23;20447;-84
2021/12/02 11:59:45;;;;;;;3.95;1.15;;;2.50;94.60;;;;;;6187745;23;20021;-84
2021/12/02 12:02:33;;;;;;;1.73;0.90;;;2.50;94.60;;;;;;6185548;23;20450;-84
2021/12/02 12:05:48;;;;;;;5.25;1.13;;;2.50;94.70;;;;;;6185488;23;20029;-83
2021/12/02 12:08:55;;;;;;;2.83;1.50;;;2.60;94.90;;;;;;6203705;23;20021;-84
2021/12/02 12:11:38;;;;;;;2.00;1.20;;;2.60;94.60;;;;;;6209186;23;20021;-83
2021/12/02 12:14:37;;;;;;;3.55;1.40;;;2.60;94.60;;;;;;6183946;23;20025;-84
2021/12/02 12:17:40;;;;;;;4.68;2.05;;;2.70;94.60;;;;;;6154280;23;20032;-83
2021/12/02 12:20:12;;;;;;;3.55;1.80;;;2.90;94.60;;;;;;6185120;23;20025;-83
2021/12/02 12:22:45;;;;;;;4.53;2.05;;;2.90;94.40;;;;;;6211082;23;20124;-84
2021/12/02 12:25:30;;;;;;;4.68;2.20;;;3.00;94.20;;;;;;6181868;23;20025;-83
2021/12/02 12:28:07;;;;;;;5.55;1.85;;;3.10;94.10;;;;;;6186362;23;20028;-83
2021/12/02 12:30:37;;;;;;;3.55;1.77;;;3.10;93.90;;;;;;6187301;23;20035;-83
2021/12/02 12:33:12;;;;;;;4.30;2.13;;;3.10;93.70;;;;;;6186510;23;20101;-83
2021/12/02 12:38:40;;;;;;;3.45;1.58;;;3.30;94.10;;;;;;6187635;23;20025;-83
2021/12/02 12:41:28;;;;;;;3.05;1.60;;;3.30;93.60;;;;;;6197037;23;20392;-83
2021/12/02 12:43:58;;;;;;;3.50;1.67;;;3.40;93.50;;;;;;6185102;23;20022;-83
2021/12/02 12:46:30;;;;;;;7.53;1.77;;;3.40;93.50;;;;;;6187384;23;20021;-83
2021/12/02 12:49:17;;;;;;;3.00;1.77;;;3.40;92.70;;;;;;6186685;23;20069;-83
2021/12/02 12:51:55;;;;;;;3.20;1.50;;;3.40;93.00;;;;;;6187151;23;20873;-83
2021/12/02 12:54:24;;;;;;;3.72;1.70;;;3.50;93.40;;;;;;6187316;23;20049;-84
2021/12/02 12:57:05;;;;;;;5.13;1.70;;;3.50;93.40;;;;;;6188211;23;20037;-84
2021/12/02 12:59:55;;;;;;;5.53;1.73;;;3.50;93.40;;;;;;6209722;23;20045;-84
2021/12/02 13:02:25;;;;;;;6.55;2.03;;;3.50;93.40;;;;;;6186366;23;20026;-84
2021/12/02 13:04:55;;;;;;;3.03;1.90;;;3.50;93.10;;;;;;6183517;23;20067;-84
2021/12/02 13:07:40;;;;;;;5.20;2.00;;;3.60;92.90;;;;;;6186067;23;20025;-84
2021/12/02 13:10:25;;;;;;;5.80;1.80;;;3.60;92.80;;;;;;6173498;23;20348;-84
2021/12/02 13:12:58;;;;;;;8.85;2.28;;;3.50;92.50;;;;;;6188363;23;20076;-84
2021/12/02 13:15:35;;;;;;;5.53;2.03;;;3.60;93.10;;;;;;6210675;23;20474;-84
2021/12/02 13:18:08;;;;;;;6.53;2.08;;;3.60;93.10;;;;;;6213095;23;20022;-84
2021/12/02 13:20:41;;;;;;;6.55;2.00;;;3.60;93.50;;;;;;6193515;23;20021;-84
2021/12/02 13:23:17;;;;;;;8.23;2.47;;;3.70;93.70;;;;;;6191939;23;20564;-84
2021/12/02 13:25:53;;;;;;;5.47;2.47;;;3.70;93.70;;;;;;6212219;23;20463;-84
2021/12/02 13:28:42;;;;;;;4.13;1.65;;;3.70;93.30;;;;;;6188084;23;20029;-84
2021/12/02 13:31:11;;;;;;;8.57;2.17;;;3.80;93.60;;;;;;6189732;23;20108;-84
2021/12/02 13:33:50;;;;;;;7.72;2.08;;;3.70;93.00;;;;;;6189386;23;20032;-84
2021/12/02 13:36:33;;;;;;;5.53;1.92;;;3.70;92.90;;;;;;6188143;23;20249;-84
2021/12/02 13:39:13;;;;;;;5.25;2.10;;;3.70;92.70;;;;;;6188391;23;20040;-84
2021/12/02 13:41:46;;;;;;;5.88;2.20;;;3.70;93.30;;;;;;6186110;23;20600;-84
2021/12/02 13:44:17;;;;;;;5.03;2.38;;;3.60;93.40;;;;;;6187973;23;20025;-84
2021/12/02 13:46:48;;;;;;;9.48;2.55;;;3.60;93.50;;;;;;6187969;23;20077;-84
2021/12/02 13:49:38;;;;;;;8.80;2.90;;;3.60;93.90;;;;;;6211497;23;20053;-84
2021/12/02 13:52:23;;;;;;;7.50;2.40;;;3.60;94.20;;;;;;6185439;23;20104;-84
2021/12/02 13:55:20;;;;;;;9.80;2.40;;;3.60;94.30;;;;;;6187850;23;20021;-84